sensor_id;sensor_type;location;lat;lon;timestamp;P1;P2;P0
80413;PMS5003;69758;52.580;13.068;2023-07-31T00:01:38;2;2;
80413;PMS5003;69758;52.580;13.068;2023-07-31T00:04:03;2;2;
80413;PMS5003;69758;52.580;13.068;2023-07-31T00:06:28;2;2;
80413;PMS5003;69758;52.580;13.068;2023-07-31T00:08:53;3;3;
80413;PMS5003;69758;52.580;13.068;2023-07-31T00:11:18;2;2;
80413;PMS5003;69758;52.580;13.068;2023-07-31T00:13:43;2;2;
80413;PMS5003;69758;52.580;13.068;2023-07-31T00:16:09;3;3;
80413;PMS5003;69758;52.580;13.068;2023-07-31T00:18:34;1;1;
80413;PMS5003;69758;52.580;13.068;2023-07-31T00:20:59;3;3;
80413;PMS5003;69758;52.580;13.068;2023-07-31T00:23:29;2;2;
80413;PMS5003;69758;52.580;13.068;2023-07-31T00:25:50;1;1;
80413;PMS5003;69758;52.580;13.068;2023-07-31T00:28:15;2;2;
80413;PMS5003;69758;52.580;13.068;2023-07-31T00:30:39;2;2;
80413;PMS5003;69758;52.580;13.068;2023-07-31T00:35:30;2;2;
80413;PMS5003;69758;52.580;13.068;2023-07-31T00:37:57;1;1;
80413;PMS5003;69758;52.580;13.068;2023-07-31T00:40:20;2;2;
80413;PMS5003;69758;52.580;13.068;2023-07-31T00:42:46;2;2;
80413;PMS5003;69758;52.580;13.068;2023-07-31T00:45:11;2;2;
80413;PMS5003;69758;52.580;13.068;2023-07-31T00:47:36;2;1;
80413;PMS5003;69758;52.580;13.068;2023-07-31T00:50:01;2;2;
80413;PMS5003;69758;52.580;13.068;2023-07-31T00:52:27;2;2;
80413;PMS5003;69758;52.580;13.068;2023-07-31T00:54:51;2;2;
80413;PMS5003;69758;52.580;13.068;2023-07-31T00:57:17;2;2;
80413;PMS5003;69758;52.580;13.068;2023-07-31T00:59:41;2;2;
80413;PMS5003;69758;52.580;13.068;2023-07-31T01:02:07;2;2;
80413;PMS5003;69758;52.580;13.068;2023-07-31T01:04:32;0;0;
80413;PMS5003;69758;52.580;13.068;2023-07-31T01:07:01;2;2;
80413;PMS5003;69758;52.580;13.068;2023-07-31T01:09:29;2;2;
80413;PMS5003;69758;52.580;13.068;2023-07-31T01:11:53;2;2;
80413;PMS5003;69758;52.580;13.068;2023-07-31T01:14:15;2;1;
80413;PMS5003;69758;52.580;13.068;2023-07-31T01:16:37;1;1;
80413;PMS5003;69758;52.580;13.068;2023-07-31T01:19:02;3;2;
80413;PMS5003;69758;52.580;13.068;2023-07-31T01:26:18;3;3;
80413;PMS5003;69758;52.580;13.068;2023-07-31T01:28:45;2;2;
80413;PMS5003;69758;52.580;13.068;2023-07-31T01:31:08;2;2;
80413;PMS5003;69758;52.580;13.068;2023-07-31T01:33:33;2;2;
80413;PMS5003;69758;52.580;13.068;2023-07-31T01:35:58;3;3;
80413;PMS5003;69758;52.580;13.068;2023-07-31T01:38:23;2;2;
80413;PMS5003;69758;52.580;13.068;2023-07-31T01:40:50;3;3;
80413;PMS5003;69758;52.580;13.068;2023-07-31T01:43:13;5;4;
80413;PMS5003;69758;52.580;13.068;2023-07-31T01:45:38;3;3;
80413;PMS5003;69758;52.580;13.068;2023-07-31T01:48:03;2;2;
80413;PMS5003;69758;52.580;13.068;2023-07-31T01:50:29;2;2;
80413;PMS5003;69758;52.580;13.068;2023-07-31T01:52:53;2;2;
80413;PMS5003;69758;52.580;13.068;2023-07-31T01:55:19;3;3;
80413;PMS5003;69758;52.580;13.068;2023-07-31T01:57:44;3;3;
80413;PMS5003;69758;52.580;13.068;2023-07-31T02:00:09;3;3;
80413;PMS5003;69758;52.580;13.068;2023-07-31T02:02:34;1;1;
80413;PMS5003;69758;52.580;13.068;2023-07-31T02:04:59;2;2;
80413;PMS5003;69758;52.580;13.068;2023-07-31T02:07:24;2;2;
80413;PMS5003;69758;52.580;13.068;2023-07-31T02:09:49;5;4;
80413;PMS5003;69758;52.580;13.068;2023-07-31T02:12:14;1;1;
80413;PMS5003;69758;52.580;13.068;2023-07-31T02:14:40;4;4;
80413;PMS5003;69758;52.580;13.068;2023-07-31T02:17:05;2;2;
80413;PMS5003;69758;52.580;13.068;2023-07-31T02:19:30;3;3;
80413;PMS5003;69758;52.580;13.068;2023-07-31T02:21:55;5;4;
80413;PMS5003;69758;52.580;13.068;2023-07-31T02:24:20;2;2;
80413;PMS5003;69758;52.580;13.068;2023-07-31T02:26:45;2;2;
80413;PMS5003;69758;52.580;13.068;2023-07-31T02:29:10;3;3;
80413;PMS5003;69758;52.580;13.068;2023-07-31T02:31:35;4;4;
80413;PMS5003;69758;52.580;13.068;2023-07-31T02:34:00;1;1;
80413;PMS5003;69758;52.580;13.068;2023-07-31T02:36:26;3;3;
80413;PMS5003;69758;52.580;13.068;2023-07-31T02:38:51;5;5;
80413;PMS5003;69758;52.580;13.068;2023-07-31T02:41:16;3;3;
80413;PMS5003;69758;52.580;13.068;2023-07-31T02:43:41;3;3;
80413;PMS5003;69758;52.580;13.068;2023-07-31T02:46:06;3;2;
80413;PMS5003;69758;52.580;13.068;2023-07-31T02:48:31;4;3;
80413;PMS5003;69758;52.580;13.068;2023-07-31T02:50:56;2;2;
80413;PMS5003;69758;52.580;13.068;2023-07-31T02:53:21;3;3;
80413;PMS5003;69758;52.580;13.068;2023-07-31T02:55:46;3;3;
80413;PMS5003;69758;52.580;13.068;2023-07-31T02:58:11;3;3;
80413;PMS5003;69758;52.580;13.068;2023-07-31T03:00:41;2;2;
80413;PMS5003;69758;52.580;13.068;2023-07-31T03:03:02;2;2;
80413;PMS5003;69758;52.580;13.068;2023-07-31T03:05:27;3;3;
80413;PMS5003;69758;52.580;13.068;2023-07-31T03:07:52;3;3;
80413;PMS5003;69758;52.580;13.068;2023-07-31T03:10:17;4;3;
80413;PMS5003;69758;52.580;13.068;2023-07-31T03:12:43;4;4;
80413;PMS5003;69758;52.580;13.068;2023-07-31T03:15:08;2;2;
80413;PMS5003;69758;52.580;13.068;2023-07-31T03:17:32;3;3;
80413;PMS5003;69758;52.580;13.068;2023-07-31T03:19:57;3;3;
80413;PMS5003;69758;52.580;13.068;2023-07-31T03:22:23;4;3;
80413;PMS5003;69758;52.580;13.068;2023-07-31T03:24:48;3;3;
80413;PMS5003;69758;52.580;13.068;2023-07-31T03:27:14;4;4;
80413;PMS5003;69758;52.580;13.068;2023-07-31T03:29:38;5;5;
80413;PMS5003;69758;52.580;13.068;2023-07-31T03:32:03;4;4;
80413;PMS5003;69758;52.580;13.068;2023-07-31T03:34:28;4;4;
80413;PMS5003;69758;52.580;13.068;2023-07-31T03:36:53;4;4;
80413;PMS5003;69758;52.580;13.068;2023-07-31T03:39:18;4;4;
80413;PMS5003;69758;52.580;13.068;2023-07-31T03:41:44;4;4;
80413;PMS5003;69758;52.580;13.068;2023-07-31T03:44:08;5;5;
80413;PMS5003;69758;52.580;13.068;2023-07-31T03:46:34;6;5;
80413;PMS5003;69758;52.580;13.068;2023-07-31T03:48:59;4;4;
80413;PMS5003;69758;52.580;13.068;2023-07-31T03:51:24;3;3;
80413;PMS5003;69758;52.580;13.068;2023-07-31T03:53:49;5;5;
80413;PMS5003;69758;52.580;13.068;2023-07-31T03:56:14;3;3;
80413;PMS5003;69758;52.580;13.068;2023-07-31T03:58:39;7;7;
80413;PMS5003;69758;52.580;13.068;2023-07-31T04:01:04;7;6;
80413;PMS5003;69758;52.580;13.068;2023-07-31T04:03:30;5;5;
80413;PMS5003;69758;52.580;13.068;2023-07-31T04:05:55;5;5;
80413;PMS5003;69758;52.580;13.068;2023-07-31T04:08:20;3;3;
80413;PMS5003;69758;52.580;13.068;2023-07-31T04:10:45;5;5;
80413;PMS5003;69758;52.580;13.068;2023-07-31T04:13:10;4;4;
80413;PMS5003;69758;52.580;13.068;2023-07-31T04:15:35;5;5;
80413;PMS5003;69758;52.580;13.068;2023-07-31T04:18:00;4;4;
80413;PMS5003;69758;52.580;13.068;2023-07-31T04:20:25;6;6;
80413;PMS5003;69758;52.580;13.068;2023-07-31T04:22:52;5;5;
80413;PMS5003;69758;52.580;13.068;2023-07-31T04:25:15;4;4;
80413;PMS5003;69758;52.580;13.068;2023-07-31T04:27:40;6;6;
80413;PMS5003;69758;52.580;13.068;2023-07-31T04:30:06;6;6;
80413;PMS5003;69758;52.580;13.068;2023-07-31T04:32:30;6;5;
80413;PMS5003;69758;52.580;13.068;2023-07-31T04:34:56;5;4;
80413;PMS5003;69758;52.580;13.068;2023-07-31T04:37:21;6;6;
80413;PMS5003;69758;52.580;13.068;2023-07-31T04:39:46;8;6;
80413;PMS5003;69758;52.580;13.068;2023-07-31T04:42:12;7;7;
80413;PMS5003;69758;52.580;13.068;2023-07-31T04:44:36;5;5;
80413;PMS5003;69758;52.580;13.068;2023-07-31T04:47:01;6;6;
80413;PMS5003;69758;52.580;13.068;2023-07-31T04:49:26;8;8;
80413;PMS5003;69758;52.580;13.068;2023-07-31T04:51:51;6;6;
80413;PMS5003;69758;52.580;13.068;2023-07-31T04:54:16;6;6;
80413;PMS5003;69758;52.580;13.068;2023-07-31T04:56:42;5;5;
80413;PMS5003;69758;52.580;13.068;2023-07-31T04:59:07;7;7;
80413;PMS5003;69758;52.580;13.068;2023-07-31T05:01:32;5;5;
80413;PMS5003;69758;52.580;13.068;2023-07-31T05:03:57;6;6;
80413;PMS5003;69758;52.580;13.068;2023-07-31T05:06:22;6;6;
80413;PMS5003;69758;52.580;13.068;2023-07-31T05:08:47;5;5;
80413;PMS5003;69758;52.580;13.068;2023-07-31T05:11:12;8;7;
80413;PMS5003;69758;52.580;13.068;2023-07-31T05:13:37;6;6;
80413;PMS5003;69758;52.580;13.068;2023-07-31T05:16:03;8;6;
80413;PMS5003;69758;52.580;13.068;2023-07-31T05:18:28;6;6;
80413;PMS5003;69758;52.580;13.068;2023-07-31T05:20:53;4;4;
80413;PMS5003;69758;52.580;13.068;2023-07-31T05:23:18;6;6;
80413;PMS5003;69758;52.580;13.068;2023-07-31T05:25:43;4;4;
80413;PMS5003;69758;52.580;13.068;2023-07-31T05:28:08;7;6;
80413;PMS5003;69758;52.580;13.068;2023-07-31T05:30:33;4;4;
80413;PMS5003;69758;52.580;13.068;2023-07-31T05:32:59;6;6;
80413;PMS5003;69758;52.580;13.068;2023-07-31T05:35:24;6;6;
80413;PMS5003;69758;52.580;13.068;2023-07-31T05:37:49;5;5;
80413;PMS5003;69758;52.580;13.068;2023-07-31T05:40:14;6;6;
80413;PMS5003;69758;52.580;13.068;2023-07-31T05:42:39;4;4;
80413;PMS5003;69758;52.580;13.068;2023-07-31T05:45:05;5;5;
80413;PMS5003;69758;52.580;13.068;2023-07-31T05:47:29;7;7;
80413;PMS5003;69758;52.580;13.068;2023-07-31T05:49:54;4;3;
80413;PMS5003;69758;52.580;13.068;2023-07-31T05:52:19;6;6;
80413;PMS5003;69758;52.580;13.068;2023-07-31T05:54:44;4;4;
80413;PMS5003;69758;52.580;13.068;2023-07-31T05:57:09;7;6;
80413;PMS5003;69758;52.580;13.068;2023-07-31T05:59:35;4;4;
80413;PMS5003;69758;52.580;13.068;2023-07-31T06:02:00;4;3;
80413;PMS5003;69758;52.580;13.068;2023-07-31T06:04:25;4;4;
80413;PMS5003;69758;52.580;13.068;2023-07-31T06:06:50;5;5;
80413;PMS5003;69758;52.580;13.068;2023-07-31T06:09:15;3;3;
80413;PMS5003;69758;52.580;13.068;2023-07-31T06:11:40;2;2;
80413;PMS5003;69758;52.580;13.068;2023-07-31T06:14:05;5;5;
80413;PMS5003;69758;52.580;13.068;2023-07-31T06:16:30;7;6;
80413;PMS5003;69758;52.580;13.068;2023-07-31T06:18:55;4;4;
80413;PMS5003;69758;52.580;13.068;2023-07-31T06:21:20;3;3;
80413;PMS5003;69758;52.580;13.068;2023-07-31T06:23:45;3;3;
80413;PMS5003;69758;52.580;13.068;2023-07-31T06:26:10;5;4;
80413;PMS5003;69758;52.580;13.068;2023-07-31T06:28:36;3;3;
80413;PMS5003;69758;52.580;13.068;2023-07-31T06:31:01;2;2;
80413;PMS5003;69758;52.580;13.068;2023-07-31T06:33:26;3;2;
80413;PMS5003;69758;52.580;13.068;2023-07-31T06:35:51;3;3;
80413;PMS5003;69758;52.580;13.068;2023-07-31T06:38:18;3;3;
80413;PMS5003;69758;52.580;13.068;2023-07-31T06:40:41;3;3;
80413;PMS5003;69758;52.580;13.068;2023-07-31T06:43:06;4;3;
80413;PMS5003;69758;52.580;13.068;2023-07-31T06:45:31;5;5;
80413;PMS5003;69758;52.580;13.068;2023-07-31T06:47:56;3;3;
80413;PMS5003;69758;52.580;13.068;2023-07-31T06:50:22;3;3;
80413;PMS5003;69758;52.580;13.068;2023-07-31T06:52:46;2;2;
80413;PMS5003;69758;52.580;13.068;2023-07-31T06:55:16;2;2;
80413;PMS5003;69758;52.580;13.068;2023-07-31T06:57:38;4;3;
80413;PMS5003;69758;52.580;13.068;2023-07-31T07:00:02;3;3;
80413;PMS5003;69758;52.580;13.068;2023-07-31T07:02:27;3;3;
80413;PMS5003;69758;52.580;13.068;2023-07-31T07:04:53;4;3;
80413;PMS5003;69758;52.580;13.068;2023-07-31T07:07:18;4;3;
80413;PMS5003;69758;52.580;13.068;2023-07-31T07:09:42;2;2;
80413;PMS5003;69758;52.580;13.068;2023-07-31T07:12:08;2;2;
80413;PMS5003;69758;52.580;13.068;2023-07-31T07:14:34;2;2;
80413;PMS5003;69758;52.580;13.068;2023-07-31T07:16:58;3;3;
80413;PMS5003;69758;52.580;13.068;2023-07-31T07:19:25;4;3;
80413;PMS5003;69758;52.580;13.068;2023-07-31T07:21:47;2;2;
80413;PMS5003;69758;52.580;13.068;2023-07-31T07:24:13;3;3;
80413;PMS5003;69758;52.580;13.068;2023-07-31T07:26:38;3;3;
80413;PMS5003;69758;52.580;13.068;2023-07-31T07:29:04;4;4;
80413;PMS5003;69758;52.580;13.068;2023-07-31T07:31:28;4;4;
80413;PMS5003;69758;52.580;13.068;2023-07-31T07:33:53;4;4;
80413;PMS5003;69758;52.580;13.068;2023-07-31T07:36:18;3;3;
80413;PMS5003;69758;52.580;13.068;2023-07-31T07:38:50;2;2;
80413;PMS5003;69758;52.580;13.068;2023-07-31T07:41:09;3;3;
80413;PMS5003;69758;52.580;13.068;2023-07-31T07:43:34;3;3;
80413;PMS5003;69758;52.580;13.068;2023-07-31T07:45:59;5;5;
80413;PMS5003;69758;52.580;13.068;2023-07-31T07:48:24;6;6;
80413;PMS5003;69758;52.580;13.068;2023-07-31T07:50:49;3;3;
80413;PMS5003;69758;52.580;13.068;2023-07-31T07:53:14;4;4;
80413;PMS5003;69758;52.580;13.068;2023-07-31T07:55:40;4;4;
80413;PMS5003;69758;52.580;13.068;2023-07-31T07:58:04;4;4;
80413;PMS5003;69758;52.580;13.068;2023-07-31T08:00:30;5;5;
80413;PMS5003;69758;52.580;13.068;2023-07-31T08:02:56;4;4;
80413;PMS5003;69758;52.580;13.068;2023-07-31T08:05:25;4;4;
80413;PMS5003;69758;52.580;13.068;2023-07-31T08:07:45;2;2;
80413;PMS5003;69758;52.580;13.068;2023-07-31T08:10:10;3;3;
80413;PMS5003;69758;52.580;13.068;2023-07-31T08:12:35;4;4;
80413;PMS5003;69758;52.580;13.068;2023-07-31T08:15:00;3;3;
80413;PMS5003;69758;52.580;13.068;2023-07-31T08:17:27;1;1;
80413;PMS5003;69758;52.580;13.068;2023-07-31T08:19:50;3;3;
80413;PMS5003;69758;52.580;13.068;2023-07-31T08:22:16;3;3;
80413;PMS5003;69758;52.580;13.068;2023-07-31T08:24:41;2;2;
80413;PMS5003;69758;52.580;13.068;2023-07-31T08:27:06;2;2;
80413;PMS5003;69758;52.580;13.068;2023-07-31T08:29:31;2;2;
80413;PMS5003;69758;52.580;13.068;2023-07-31T08:31:56;2;2;
80413;PMS5003;69758;52.580;13.068;2023-07-31T08:34:21;3;3;
80413;PMS5003;69758;52.580;13.068;2023-07-31T08:36:46;2;2;
80413;PMS5003;69758;52.580;13.068;2023-07-31T08:39:12;4;4;
80413;PMS5003;69758;52.580;13.068;2023-07-31T08:44:02;4;4;
80413;PMS5003;69758;52.580;13.068;2023-07-31T08:46:26;3;3;
80413;PMS5003;69758;52.580;13.068;2023-07-31T08:48:51;3;3;
80413;PMS5003;69758;52.580;13.068;2023-07-31T08:51:16;3;3;
80413;PMS5003;69758;52.580;13.068;2023-07-31T08:53:41;4;3;
80413;PMS5003;69758;52.580;13.068;2023-07-31T08:56:06;3;3;
80413;PMS5003;69758;52.580;13.068;2023-07-31T08:58:32;3;3;
80413;PMS5003;69758;52.580;13.068;2023-07-31T09:00:57;1;1;
80413;PMS5003;69758;52.580;13.068;2023-07-31T09:03:22;3;3;
80413;PMS5003;69758;52.580;13.068;2023-07-31T09:05:47;4;3;
80413;PMS5003;69758;52.580;13.068;2023-07-31T09:08:13;1;1;
80413;PMS5003;69758;52.580;13.068;2023-07-31T09:10:39;2;1;
80413;PMS5003;69758;52.580;13.068;2023-07-31T09:13:02;1;1;
80413;PMS5003;69758;52.580;13.068;2023-07-31T09:15:27;2;2;
80413;PMS5003;69758;52.580;13.068;2023-07-31T09:20:19;2;2;
80413;PMS5003;69758;52.580;13.068;2023-07-31T09:22:52;1;1;
80413;PMS5003;69758;52.580;13.068;2023-07-31T09:25:14;1;1;
80413;PMS5003;69758;52.580;13.068;2023-07-31T09:29:59;2;2;
80413;PMS5003;69758;52.580;13.068;2023-07-31T09:32:23;2;2;
80413;PMS5003;69758;52.580;13.068;2023-07-31T09:34:52;1;1;
80413;PMS5003;69758;52.580;13.068;2023-07-31T09:37:14;2;2;
80413;PMS5003;69758;52.580;13.068;2023-07-31T09:39:47;2;2;
80413;PMS5003;69758;52.580;13.068;2023-07-31T09:42:03;1;1;
80413;PMS5003;69758;52.580;13.068;2023-07-31T09:44:39;1;1;
80413;PMS5003;69758;52.580;13.068;2023-07-31T09:47:03;1;1;
80413;PMS5003;69758;52.580;13.068;2023-07-31T09:49:18;1;1;
80413;PMS5003;69758;52.580;13.068;2023-07-31T09:51:44;0;0;
80413;PMS5003;69758;52.580;13.068;2023-07-31T09:54:14;2;2;
80413;PMS5003;69758;52.580;13.068;2023-07-31T09:56:34;2;2;
80413;PMS5003;69758;52.580;13.068;2023-07-31T10:01:24;0;0;
80413;PMS5003;69758;52.580;13.068;2023-07-31T10:03:59;1;1;
80413;PMS5003;69758;52.580;13.068;2023-07-31T10:06:14;2;1;
80413;PMS5003;69758;52.580;13.068;2023-07-31T10:15:54;1;1;
80413;PMS5003;69758;52.580;13.068;2023-07-31T10:23:14;3;3;
80413;PMS5003;69758;52.580;13.068;2023-07-31T10:25:35;3;3;
80413;PMS5003;69758;52.580;13.068;2023-07-31T10:30:25;5;5;
80413;PMS5003;69758;52.580;13.068;2023-07-31T10:32:50;4;4;
80413;PMS5003;69758;52.580;13.068;2023-07-31T10:37:40;4;4;
80413;PMS5003;69758;52.580;13.068;2023-07-31T10:40:05;4;4;
80413;PMS5003;69758;52.580;13.068;2023-07-31T10:42:30;4;4;
80413;PMS5003;69758;52.580;13.068;2023-07-31T10:44:56;5;5;
80413;PMS5003;69758;52.580;13.068;2023-07-31T10:47:20;2;2;
80413;PMS5003;69758;52.580;13.068;2023-07-31T10:49:46;5;5;
80413;PMS5003;69758;52.580;13.068;2023-07-31T10:52:10;5;4;
80413;PMS5003;69758;52.580;13.068;2023-07-31T10:54:35;4;4;
80413;PMS5003;69758;52.580;13.068;2023-07-31T10:57:00;8;7;
80413;PMS5003;69758;52.580;13.068;2023-07-31T10:59:26;4;4;
80413;PMS5003;69758;52.580;13.068;2023-07-31T11:01:50;6;6;
80413;PMS5003;69758;52.580;13.068;2023-07-31T11:04:15;5;4;
80413;PMS5003;69758;52.580;13.068;2023-07-31T11:06:41;7;7;
80413;PMS5003;69758;52.580;13.068;2023-07-31T11:09:06;5;5;
80413;PMS5003;69758;52.580;13.068;2023-07-31T11:11:31;7;7;
80413;PMS5003;69758;52.580;13.068;2023-07-31T11:13:56;9;8;
80413;PMS5003;69758;52.580;13.068;2023-07-31T11:16:21;4;4;
80413;PMS5003;69758;52.580;13.068;2023-07-31T11:18:46;7;6;
80413;PMS5003;69758;52.580;13.068;2023-07-31T11:21:12;7;7;
80413;PMS5003;69758;52.580;13.068;2023-07-31T11:23:37;7;7;
80413;PMS5003;69758;52.580;13.068;2023-07-31T11:26:01;4;4;
80413;PMS5003;69758;52.580;13.068;2023-07-31T11:28:26;5;5;
80413;PMS5003;69758;52.580;13.068;2023-07-31T11:30:51;5;5;
80413;PMS5003;69758;52.580;13.068;2023-07-31T11:33:16;8;7;
80413;PMS5003;69758;52.580;13.068;2023-07-31T11:35:42;8;8;
80413;PMS5003;69758;52.580;13.068;2023-07-31T11:38:06;5;5;
80413;PMS5003;69758;52.580;13.068;2023-07-31T11:40:40;5;5;
80413;PMS5003;69758;52.580;13.068;2023-07-31T11:42:56;5;5;
80413;PMS5003;69758;52.580;13.068;2023-07-31T11:45:23;5;5;
80413;PMS5003;69758;52.580;13.068;2023-07-31T11:47:46;7;7;
80413;PMS5003;69758;52.580;13.068;2023-07-31T11:50:11;5;5;
80413;PMS5003;69758;52.580;13.068;2023-07-31T11:52:37;6;5;
80413;PMS5003;69758;52.580;13.068;2023-07-31T11:55:02;4;4;
80413;PMS5003;69758;52.580;13.068;2023-07-31T11:57:27;6;4;
80413;PMS5003;69758;52.580;13.068;2023-07-31T11:59:52;6;4;
80413;PMS5003;69758;52.580;13.068;2023-07-31T12:02:17;4;4;
80413;PMS5003;69758;52.580;13.068;2023-07-31T12:04:42;5;5;
80413;PMS5003;69758;52.580;13.068;2023-07-31T12:07:08;6;6;
80413;PMS5003;69758;52.580;13.068;2023-07-31T12:09:32;5;4;
80413;PMS5003;69758;52.580;13.068;2023-07-31T12:11:57;7;6;
80413;PMS5003;69758;52.580;13.068;2023-07-31T12:14:23;6;6;
80413;PMS5003;69758;52.580;13.068;2023-07-31T12:16:48;4;4;
80413;PMS5003;69758;52.580;13.068;2023-07-31T12:19:13;6;6;
80413;PMS5003;69758;52.580;13.068;2023-07-31T12:21:38;3;3;
80413;PMS5003;69758;52.580;13.068;2023-07-31T12:24:03;4;4;
80413;PMS5003;69758;52.580;13.068;2023-07-31T12:28:53;5;5;
80413;PMS5003;69758;52.580;13.068;2023-07-31T12:31:19;6;6;
80413;PMS5003;69758;52.580;13.068;2023-07-31T12:33:43;5;5;
80413;PMS5003;69758;52.580;13.068;2023-07-31T12:36:08;4;4;
80413;PMS5003;69758;52.580;13.068;2023-07-31T12:38:33;4;4;
80413;PMS5003;69758;52.580;13.068;2023-07-31T12:40:58;4;4;
80413;PMS5003;69758;52.580;13.068;2023-07-31T12:43:23;5;5;
80413;PMS5003;69758;52.580;13.068;2023-07-31T12:45:48;6;6;
80413;PMS5003;69758;52.580;13.068;2023-07-31T12:48:13;7;6;
80413;PMS5003;69758;52.580;13.068;2023-07-31T12:50:38;3;3;
80413;PMS5003;69758;52.580;13.068;2023-07-31T12:53:04;5;5;
80413;PMS5003;69758;52.580;13.068;2023-07-31T12:55:28;6;5;
80413;PMS5003;69758;52.580;13.068;2023-07-31T12:57:53;5;5;
80413;PMS5003;69758;52.580;13.068;2023-07-31T13:00:18;8;8;
80413;PMS5003;69758;52.580;13.068;2023-07-31T13:02:43;5;5;
80413;PMS5003;69758;52.580;13.068;2023-07-31T13:05:08;5;5;
80413;PMS5003;69758;52.580;13.068;2023-07-31T13:07:34;4;4;
80413;PMS5003;69758;52.580;13.068;2023-07-31T13:09:59;4;4;
80413;PMS5003;69758;52.580;13.068;2023-07-31T13:12:24;4;4;
80413;PMS5003;69758;52.580;13.068;2023-07-31T13:14:50;6;5;
80413;PMS5003;69758;52.580;13.068;2023-07-31T13:17:14;5;5;
80413;PMS5003;69758;52.580;13.068;2023-07-31T13:19:39;5;5;
80413;PMS5003;69758;52.580;13.068;2023-07-31T13:22:04;3;3;
80413;PMS5003;69758;52.580;13.068;2023-07-31T13:24:29;4;4;
80413;PMS5003;69758;52.580;13.068;2023-07-31T13:26:55;5;5;
80413;PMS5003;69758;52.580;13.068;2023-07-31T13:29:19;5;3;
80413;PMS5003;69758;52.580;13.068;2023-07-31T13:31:44;6;6;
80413;PMS5003;69758;52.580;13.068;2023-07-31T13:34:09;4;4;
80413;PMS5003;69758;52.580;13.068;2023-07-31T13:36:35;4;4;
80413;PMS5003;69758;52.580;13.068;2023-07-31T13:39:00;4;4;
80413;PMS5003;69758;52.580;13.068;2023-07-31T13:41:25;3;3;
80413;PMS5003;69758;52.580;13.068;2023-07-31T13:43:50;5;5;
80413;PMS5003;69758;52.580;13.068;2023-07-31T13:46:15;6;4;
80413;PMS5003;69758;52.580;13.068;2023-07-31T13:48:40;3;3;
80413;PMS5003;69758;52.580;13.068;2023-07-31T13:51:05;4;4;
80413;PMS5003;69758;52.580;13.068;2023-07-31T13:53:30;6;5;
80413;PMS5003;69758;52.580;13.068;2023-07-31T13:55:55;4;4;
80413;PMS5003;69758;52.580;13.068;2023-07-31T13:58:20;4;4;
80413;PMS5003;69758;52.580;13.068;2023-07-31T14:00:45;3;3;
80413;PMS5003;69758;52.580;13.068;2023-07-31T14:03:10;5;5;
80413;PMS5003;69758;52.580;13.068;2023-07-31T14:05:35;5;5;
80413;PMS5003;69758;52.580;13.068;2023-07-31T14:08:00;4;4;
80413;PMS5003;69758;52.580;13.068;2023-07-31T14:12:51;4;4;
80413;PMS5003;69758;52.580;13.068;2023-07-31T14:15:15;4;3;
80413;PMS5003;69758;52.580;13.068;2023-07-31T14:17:40;6;5;
80413;PMS5003;69758;52.580;13.068;2023-07-31T14:20:06;4;4;
80413;PMS5003;69758;52.580;13.068;2023-07-31T14:22:30;5;5;
80413;PMS5003;69758;52.580;13.068;2023-07-31T14:24:55;4;4;
80413;PMS5003;69758;52.580;13.068;2023-07-31T14:27:20;5;5;
80413;PMS5003;69758;52.580;13.068;2023-07-31T14:29:45;5;5;
80413;PMS5003;69758;52.580;13.068;2023-07-31T14:32:10;4;4;
80413;PMS5003;69758;52.580;13.068;2023-07-31T14:34:35;5;5;
80413;PMS5003;69758;52.580;13.068;2023-07-31T14:37:00;5;5;
80413;PMS5003;69758;52.580;13.068;2023-07-31T14:39:25;7;6;
80413;PMS5003;69758;52.580;13.068;2023-07-31T14:41:50;6;6;
80413;PMS5003;69758;52.580;13.068;2023-07-31T14:44:15;5;5;
80413;PMS5003;69758;52.580;13.068;2023-07-31T14:46:40;4;4;
80413;PMS5003;69758;52.580;13.068;2023-07-31T14:49:05;4;4;
80413;PMS5003;69758;52.580;13.068;2023-07-31T14:51:30;4;4;
80413;PMS5003;69758;52.580;13.068;2023-07-31T14:53:55;5;5;
80413;PMS5003;69758;52.580;13.068;2023-07-31T14:56:20;5;5;
80413;PMS5003;69758;52.580;13.068;2023-07-31T14:58:45;4;4;
80413;PMS5003;69758;52.580;13.068;2023-07-31T15:01:10;5;5;
80413;PMS5003;69758;52.580;13.068;2023-07-31T15:03:35;6;5;
80413;PMS5003;69758;52.580;13.068;2023-07-31T15:06:01;7;5;
80413;PMS5003;69758;52.580;13.068;2023-07-31T15:08:26;6;6;
80413;PMS5003;69758;52.580;13.068;2023-07-31T15:10:51;4;4;
80413;PMS5003;69758;52.580;13.068;2023-07-31T15:13:16;4;4;
80413;PMS5003;69758;52.580;13.068;2023-07-31T15:15:41;5;5;
80413;PMS5003;69758;52.580;13.068;2023-07-31T15:18:06;4;4;
80413;PMS5003;69758;52.580;13.068;2023-07-31T15:20:38;4;4;
80413;PMS5003;69758;52.580;13.068;2023-07-31T15:23:01;4;4;
80413;PMS5003;69758;52.580;13.068;2023-07-31T15:25:23;4;4;
80413;PMS5003;69758;52.580;13.068;2023-07-31T15:27:47;4;4;
80413;PMS5003;69758;52.580;13.068;2023-07-31T15:30:13;5;5;
80413;PMS5003;69758;52.580;13.068;2023-07-31T15:32:37;6;5;
80413;PMS5003;69758;52.580;13.068;2023-07-31T15:37:26;4;4;
80413;PMS5003;69758;52.580;13.068;2023-07-31T15:39:52;5;5;
80413;PMS5003;69758;52.580;13.068;2023-07-31T15:42:17;5;5;
80413;PMS5003;69758;52.580;13.068;2023-07-31T15:44:42;4;4;
80413;PMS5003;69758;52.580;13.068;2023-07-31T15:47:07;5;5;
80413;PMS5003;69758;52.580;13.068;2023-07-31T15:49:32;6;5;
80413;PMS5003;69758;52.580;13.068;2023-07-31T15:51:57;5;5;
80413;PMS5003;69758;52.580;13.068;2023-07-31T15:54:22;5;4;
80413;PMS5003;69758;52.580;13.068;2023-07-31T15:56:47;7;6;
80413;PMS5003;69758;52.580;13.068;2023-07-31T15:59:13;4;4;
80413;PMS5003;69758;52.580;13.068;2023-07-31T16:01:38;4;4;
80413;PMS5003;69758;52.580;13.068;2023-07-31T16:04:02;5;5;
80413;PMS5003;69758;52.580;13.068;2023-07-31T16:06:28;6;6;
80413;PMS5003;69758;52.580;13.068;2023-07-31T16:08:53;6;6;
80413;PMS5003;69758;52.580;13.068;2023-07-31T16:11:17;6;5;
80413;PMS5003;69758;52.580;13.068;2023-07-31T16:13:42;6;6;
80413;PMS5003;69758;52.580;13.068;2023-07-31T16:16:07;6;6;
80413;PMS5003;69758;52.580;13.068;2023-07-31T16:18:32;6;5;
80413;PMS5003;69758;52.580;13.068;2023-07-31T16:20:57;4;4;
80413;PMS5003;69758;52.580;13.068;2023-07-31T16:23:22;4;4;
80413;PMS5003;69758;52.580;13.068;2023-07-31T16:25:47;7;7;
80413;PMS5003;69758;52.580;13.068;2023-07-31T16:28:12;6;6;
80413;PMS5003;69758;52.580;13.068;2023-07-31T16:30:37;7;6;
80413;PMS5003;69758;52.580;13.068;2023-07-31T16:33:02;4;3;
80413;PMS5003;69758;52.580;13.068;2023-07-31T16:35:27;3;2;
80413;PMS5003;69758;52.580;13.068;2023-07-31T16:37:52;3;3;
80413;PMS5003;69758;52.580;13.068;2023-07-31T16:40:17;3;3;
80413;PMS5003;69758;52.580;13.068;2023-07-31T16:42:42;4;3;
80413;PMS5003;69758;52.580;13.068;2023-07-31T16:45:07;5;4;
80413;PMS5003;69758;52.580;13.068;2023-07-31T16:47:33;6;5;
80413;PMS5003;69758;52.580;13.068;2023-07-31T16:49:57;4;4;
80413;PMS5003;69758;52.580;13.068;2023-07-31T16:52:22;3;3;
80413;PMS5003;69758;52.580;13.068;2023-07-31T16:54:47;10;9;
80413;PMS5003;69758;52.580;13.068;2023-07-31T16:57:13;7;7;
80413;PMS5003;69758;52.580;13.068;2023-07-31T16:59:38;6;5;